createdAt,value
2022-09-03T00:00:56.997Z,41.50
2022-09-03T00:01:59.527Z,41.56
2022-09-03T00:03:06.682Z,41.57
2022-09-03T00:04:11.859Z,41.54
2022-09-03T00:05:17.338Z,41.50
2022-09-03T00:06:21.769Z,41.63
2022-09-03T00:07:28.923Z,41.51
2022-09-03T00:08:33.791Z,41.54
2022-09-03T00:09:41.461Z,41.78
2022-09-03T00:10:47.190Z,41.61
2022-09-03T00:12:08.970Z,41.57
2022-09-03T00:13:10.539Z,41.67
2022-09-03T00:14:16.130Z,41.75
2022-09-03T00:15:18.442Z,41.63
2022-09-03T00:16:21.998Z,41.89
2022-09-03T00:17:24.979Z,41.98
2022-09-03T00:18:30.535Z,41.70
2022-09-03T00:19:32.739Z,41.78
2022-09-03T00:20:36.746Z,41.82
2022-09-03T00:21:39.648Z,41.92
2022-09-03T00:22:45.113Z,41.87
2022-09-03T00:23:46.660Z,41.99
2022-09-03T00:24:50.181Z,41.94
2022-09-03T00:26:03.285Z,42.15
2022-09-03T00:27:06.550Z,42.07
2022-09-03T00:28:12.746Z,42.08
2022-09-03T00:29:15.742Z,41.98
2022-09-03T00:30:17.569Z,42.15
2022-09-03T00:31:27.602Z,42.27
2022-09-03T00:32:30.135Z,42.05
2022-09-03T00:33:31.666Z,42.19
2022-09-03T00:34:37.995Z,42.21
2022-09-03T00:36:02.190Z,42.14
2022-09-03T00:37:04.226Z,42.39
2022-09-03T00:38:05.758Z,42.15
2022-09-03T00:39:07.477Z,42.18
2022-09-03T00:40:11.225Z,42.13
2022-09-03T00:41:22.998Z,42.30
2022-09-03T00:42:38.530Z,42.21
2022-09-03T00:43:49.206Z,42.24
2022-09-03T00:44:50.924Z,42.24
2022-09-03T00:45:58.593Z,42.42
2022-09-03T00:47:19.319Z,42.41
2022-09-03T00:48:28.731Z,42.44
2022-09-03T00:49:39.500Z,42.38
2022-09-03T00:51:00.950Z,42.43
2022-09-03T00:52:23.323Z,42.37
2022-09-03T00:53:34.483Z,42.38
2022-09-03T00:54:43.760Z,42.34
2022-09-03T00:55:48.237Z,42.50
2022-09-03T00:57:05.429Z,42.49
2022-09-03T00:58:10.122Z,42.60
2022-09-03T00:59:15.550Z,42.64
2022-09-03T01:00:17.531Z,42.57
2022-09-03T01:01:21.202Z,42.86
2022-09-03T01:02:29.083Z,42.67
2022-09-03T01:03:42.250Z,42.79
2022-09-03T01:05:02.071Z,42.76
2022-09-03T01:06:15.580Z,42.72
2022-09-03T01:07:31.280Z,42.66
2022-09-03T01:08:45.072Z,42.93
2022-09-03T01:09:56.520Z,42.88
2022-09-03T01:11:07.115Z,42.82
2022-09-03T01:12:15.166Z,42.88
2022-09-03T01:13:18.667Z,42.89
2022-09-03T01:14:20.163Z,43.00
2022-09-03T01:15:54.487Z,43.05
2022-09-03T01:16:58.603Z,43.16
2022-09-03T01:18:07.490Z,43.16
2022-09-03T01:19:09.014Z,43.08
2022-09-03T01:20:29.883Z,43.01
2022-09-03T01:21:31.366Z,43.13
2022-09-03T01:22:45.138Z,43.03
2022-09-03T01:24:02.110Z,43.06
2022-09-03T01:25:07.980Z,43.15
2022-09-03T01:26:16.735Z,42.98
2022-09-03T01:27:36.888Z,42.93
2022-09-03T01:28:43.085Z,42.88
2022-09-03T01:29:44.611Z,42.97
2022-09-03T01:30:49.299Z,43.04
2022-09-03T01:32:01.264Z,43.17
2022-09-03T01:33:12.081Z,43.03
2022-09-03T01:34:28.434Z,43.17
2022-09-03T01:36:08.596Z,43.17
2022-09-03T01:37:19.480Z,42.99
2022-09-03T01:38:34.865Z,43.01
2022-09-03T01:39:36.926Z,43.05
2022-09-03T01:40:38.512Z,43.07
2022-09-03T01:42:07.543Z,43.15
2022-09-03T01:43:34.103Z,43.16
2022-09-03T01:44:40.630Z,43.26
2022-09-03T01:45:51.324Z,43.28
2022-09-03T01:46:59.072Z,43.32
2022-09-03T01:48:18.975Z,43.23
2022-09-03T01:49:24.543Z,43.32
2022-09-03T01:50:48.830Z,43.45
2022-09-03T01:52:16.749Z,43.44
2022-09-03T01:53:36.509Z,43.32
2022-09-03T01:54:50.450Z,43.49
2022-09-03T01:55:58.391Z,43.48
2022-09-03T01:57:35.510Z,43.50
2022-09-03T01:59:02.668Z,43.31
2022-09-03T02:00:13.285Z,43.53
2022-09-03T02:01:21.051Z,43.39
2022-09-03T02:02:23.424Z,43.39
2022-09-03T02:03:25.041Z,43.36
2022-09-03T02:04:26.673Z,43.41
2022-09-03T02:05:28.182Z,43.43
2022-09-03T02:06:31.747Z,43.53
2022-09-03T02:07:34.693Z,43.57
2022-09-03T02:08:36.289Z,43.64
2022-09-03T02:09:37.817Z,43.61
2022-09-03T02:10:55.379Z,43.45
2022-09-03T02:12:03.198Z,43.46
2022-09-03T02:13:09.326Z,43.54
2022-09-03T02:14:10.842Z,43.61
2022-09-03T02:15:13.652Z,43.50
2022-09-03T02:16:16.138Z,43.66
2022-09-03T02:17:17.730Z,43.68
2022-09-03T02:18:20.950Z,43.71
2022-09-03T02:19:24.456Z,43.77
2022-09-03T02:20:26.626Z,43.66
2022-09-03T02:21:28.409Z,43.74
2022-09-03T02:22:30.122Z,43.80
2022-09-03T02:23:31.623Z,43.82
2022-09-03T02:24:33.130Z,43.89
2022-09-03T02:25:39.412Z,43.84
2022-09-03T02:26:41.686Z,43.84
2022-09-03T02:27:43.878Z,43.92
2022-09-03T02:28:45.362Z,43.98
2022-09-03T02:29:46.932Z,43.94
2022-09-03T02:30:48.652Z,44.12
2022-09-03T02:31:50.175Z,43.99
2022-09-03T02:32:51.773Z,44.10
2022-09-03T02:33:53.316Z,44.00
2022-09-03T02:34:54.850Z,44.00
2022-09-03T02:35:56.354Z,44.00
2022-09-03T02:36:57.836Z,44.02
2022-09-03T02:38:09.618Z,43.91
2022-09-03T02:39:11.218Z,44.07
2022-09-03T02:40:12.781Z,44.17
2022-09-03T02:41:15.056Z,44.22
2022-09-03T02:42:17.382Z,44.15
2022-09-03T02:43:20.207Z,44.30
2022-09-03T02:45:19.464Z,44.30
2022-09-03T02:46:21.819Z,44.32
2022-09-03T02:47:23.450Z,44.26
2022-09-03T02:48:25.437Z,44.33
2022-09-03T02:49:28.153Z,44.43
2022-09-03T02:50:29.822Z,44.25
2022-09-03T02:51:38.062Z,44.32
2022-09-03T02:52:39.539Z,44.37
2022-09-03T02:53:42.231Z,44.42
2022-09-03T02:54:45.187Z,44.44
2022-09-03T02:55:46.740Z,44.38
2022-09-03T02:56:49.689Z,44.35
2022-09-03T02:57:51.570Z,44.69
2022-09-03T02:58:53.072Z,44.56
2022-09-03T02:59:54.586Z,44.44
2022-09-03T03:00:56.145Z,44.34
2022-09-03T03:01:58.013Z,44.26
2022-09-03T03:03:03.418Z,44.27
2022-09-03T03:04:04.918Z,44.21
2022-09-03T03:05:08.469Z,44.11
2022-09-03T03:06:09.970Z,44.03
2022-09-03T03:07:11.685Z,44.06
2022-09-03T03:08:15.141Z,44.34
2022-09-03T03:09:17.414Z,44.52
2022-09-03T03:10:18.990Z,44.56
2022-09-03T03:11:21.959Z,44.73
2022-09-03T03:12:23.531Z,44.75
2022-09-03T03:13:25.433Z,44.75
2022-09-03T03:14:26.932Z,44.86
2022-09-03T03:15:28.449Z,44.79
2022-09-03T03:16:29.983Z,44.70
2022-09-03T03:17:31.732Z,44.69
2022-09-03T03:18:34.321Z,44.59
2022-09-03T03:19:36.075Z,44.75
2022-09-03T03:20:38.233Z,44.57
2022-09-03T03:21:39.795Z,44.54
2022-09-03T03:22:41.342Z,44.60
2022-09-03T03:23:42.842Z,44.53
2022-09-03T03:24:44.505Z,44.52
2022-09-03T03:25:46.032Z,44.56
2022-09-03T03:26:47.539Z,44.62
2022-09-03T03:27:49.012Z,44.62
2022-09-03T03:28:51.169Z,44.62
2022-09-03T03:29:52.635Z,44.60
2022-09-03T03:30:54.566Z,44.62
2022-09-03T03:31:56.206Z,44.72
2022-09-03T03:32:57.720Z,44.60
2022-09-03T03:33:59.899Z,44.91
2022-09-03T03:35:01.454Z,44.86
2022-09-03T03:36:07.061Z,44.88
2022-09-03T03:37:08.547Z,44.78
2022-09-03T03:38:10.132Z,44.74
2022-09-03T03:39:11.678Z,44.79
2022-09-03T03:40:13.562Z,44.88
2022-09-03T03:41:15.780Z,45.00
2022-09-03T03:42:17.325Z,44.95
2022-09-03T03:43:18.811Z,45.02
2022-09-03T03:44:20.291Z,44.95
2022-09-03T03:45:21.996Z,44.82
2022-09-03T03:46:24.036Z,45.08
2022-09-03T03:47:25.602Z,45.07
2022-09-03T03:48:27.135Z,45.08
2022-09-03T03:49:28.643Z,45.14
2022-09-03T03:50:30.169Z,45.00
2022-09-03T03:51:32.631Z,45.14
2022-09-03T03:52:34.219Z,45.14
2022-09-03T03:53:36.034Z,45.32
2022-09-03T03:54:37.547Z,45.19
2022-09-03T03:55:39.258Z,45.24
2022-09-03T03:56:40.828Z,45.19
2022-09-03T03:57:42.329Z,45.17
2022-09-03T03:58:44.278Z,45.23
2022-09-03T03:59:46.189Z,45.33
2022-09-03T04:00:48.087Z,45.21
2022-09-03T04:01:50.869Z,45.38
2022-09-03T04:02:52.790Z,45.27
2022-09-03T04:03:57.916Z,45.24
2022-09-03T04:05:00.284Z,45.35
2022-09-03T04:06:02.710Z,45.23
2022-09-03T04:07:04.191Z,45.18
2022-09-03T04:08:06.578Z,45.21
2022-09-03T04:09:08.150Z,45.19
2022-09-03T04:10:09.943Z,45.25
2022-09-03T04:11:12.147Z,45.13
2022-09-03T04:12:13.626Z,45.22
2022-09-03T04:13:15.116Z,45.16
2022-09-03T04:14:18.035Z,45.33
2022-09-03T04:15:19.687Z,45.35
2022-09-03T04:16:24.866Z,45.37
2022-09-03T04:17:26.462Z,45.25
2022-09-03T04:18:28.042Z,45.36
2022-09-03T04:19:32.431Z,45.24
2022-09-03T04:20:35.719Z,45.28
2022-09-03T04:21:37.194Z,45.42
2022-09-03T04:22:38.714Z,45.50
2022-09-03T04:23:41.000Z,45.53
2022-09-03T04:24:42.584Z,45.44
2022-09-03T04:25:44.977Z,45.53
2022-09-03T04:26:47.259Z,45.63
2022-09-03T04:27:48.800Z,45.70
2022-09-03T04:28:50.347Z,45.61
2022-09-03T04:29:51.983Z,45.60
2022-09-03T04:30:53.619Z,45.60
2022-09-03T04:32:14.516Z,45.59
2022-09-03T04:33:16.499Z,45.54
2022-09-03T04:34:18.030Z,45.56
2022-09-03T04:35:20.989Z,45.50
2022-09-03T04:36:23.388Z,45.64
2022-09-03T04:37:24.875Z,45.73
2022-09-03T04:38:26.392Z,45.74
2022-09-03T04:39:28.092Z,45.83
2022-09-03T04:40:29.707Z,45.74
2022-09-03T04:41:31.296Z,45.73
2022-09-03T04:42:32.812Z,45.70
2022-09-03T04:43:35.059Z,45.67
2022-09-03T04:44:38.402Z,45.73
2022-09-03T04:45:39.983Z,45.80
2022-09-03T04:46:41.689Z,45.71
2022-09-03T04:47:43.222Z,45.80
2022-09-03T04:48:47.267Z,45.83
2022-09-03T04:49:48.828Z,45.75
2022-09-03T04:50:50.722Z,45.81
2022-09-03T04:51:52.746Z,45.93
2022-09-03T04:52:56.276Z,45.81
2022-09-03T04:53:58.782Z,45.95
2022-09-03T04:55:00.915Z,45.97
2022-09-03T04:56:02.768Z,46.00
2022-09-03T04:57:04.515Z,45.87
2022-09-03T04:58:07.943Z,46.03
2022-09-03T04:59:09.573Z,45.83
2022-09-03T05:00:21.362Z,45.69
2022-09-03T05:01:37.240Z,45.85
2022-09-03T05:02:38.897Z,45.80
2022-09-03T05:03:40.447Z,45.85
2022-09-03T05:04:48.023Z,46.04
2022-09-03T05:05:53.602Z,46.15
2022-09-03T05:06:55.158Z,46.45
2022-09-03T05:08:02.895Z,46.70
2022-09-03T05:09:04.518Z,46.67
2022-09-03T05:10:06.932Z,46.85
2022-09-03T05:11:08.663Z,47.38
2022-09-03T05:12:11.031Z,48.00
2022-09-03T05:13:12.551Z,48.35
2022-09-03T05:14:14.033Z,49.23
2022-09-03T05:15:15.751Z,49.34
2022-09-03T05:16:17.757Z,49.80
2022-09-03T05:17:19.318Z,49.79
2022-09-03T05:18:21.035Z,49.68
2022-09-03T05:19:22.540Z,49.64
2022-09-03T05:20:24.316Z,49.33
2022-09-03T05:21:26.104Z,50.09
2022-09-03T05:22:27.601Z,50.64
2022-09-03T05:23:33.179Z,50.31
2022-09-03T05:24:37.100Z,50.35
2022-09-03T05:25:38.884Z,50.06
2022-09-03T05:26:40.442Z,50.50
2022-09-03T05:27:42.303Z,50.60
2022-09-03T05:28:43.916Z,50.52
2022-09-03T05:29:45.397Z,50.93
2022-09-03T05:30:46.930Z,50.62
2022-09-03T05:31:48.466Z,50.34
2022-09-03T05:32:50.062Z,50.42
2022-09-03T05:33:52.700Z,50.22
2022-09-03T05:34:54.404Z,50.30
2022-09-03T05:36:00.775Z,50.64
2022-09-03T05:37:02.305Z,51.01
2022-09-03T05:38:03.820Z,51.65
2022-09-03T05:39:05.556Z,52.23
2022-09-03T05:40:08.865Z,52.81
2022-09-03T05:41:10.778Z,53.36
2022-09-03T05:42:13.520Z,53.42
2022-09-03T05:43:16.446Z,52.57
2022-09-03T05:44:18.070Z,54.05
2022-09-03T05:45:20.355Z,53.50
2022-09-03T05:46:22.428Z,53.92
2022-09-03T05:47:24.128Z,53.30
2022-09-03T05:48:25.667Z,54.58
2022-09-03T05:49:27.226Z,54.83
2022-09-03T05:50:28.741Z,55.74
2022-09-03T05:51:30.352Z,55.80
2022-09-03T05:52:31.890Z,55.88
2022-09-03T05:53:34.107Z,55.87
2022-09-03T05:54:35.672Z,55.74
2022-09-03T05:55:37.182Z,56.18
2022-09-03T05:56:40.218Z,56.20
2022-09-03T05:57:42.363Z,55.99
2022-09-03T05:58:45.335Z,55.92
2022-09-03T05:59:47.669Z,55.94
2022-09-03T06:00:49.136Z,55.72
2022-09-03T06:01:53.015Z,55.43
2022-09-03T06:02:58.813Z,55.91
2022-09-03T06:04:00.446Z,56.33
2022-09-03T06:05:01.956Z,56.15
2022-09-03T06:06:05.378Z,56.61
2022-09-03T06:07:06.929Z,56.46
2022-09-03T06:08:08.475Z,56.90
2022-09-03T06:09:15.938Z,57.32
2022-09-03T06:10:20.214Z,57.63
2022-09-03T06:11:28.139Z,56.98
2022-09-03T06:12:29.720Z,56.96
2022-09-03T06:13:31.558Z,57.21
2022-09-03T06:14:33.057Z,56.75
2022-09-03T06:15:34.724Z,56.70
2022-09-03T06:16:37.272Z,56.82
2022-09-03T06:17:38.904Z,56.63
2022-09-03T06:18:40.458Z,56.76
2022-09-03T06:19:41.937Z,56.88
2022-09-03T06:20:43.444Z,56.90
2022-09-03T06:21:45.203Z,56.81
2022-09-03T06:22:53.081Z,56.63
2022-09-03T06:23:59.879Z,56.44
2022-09-03T06:25:01.704Z,56.13
2022-09-03T06:26:12.367Z,56.09
2022-09-03T06:27:13.850Z,56.24
2022-09-03T06:28:16.113Z,56.77
2022-09-03T06:29:19.859Z,57.38
2022-09-03T06:30:22.927Z,58.40
2022-09-03T06:31:24.665Z,58.11
2022-09-03T06:32:26.260Z,58.22
2022-09-03T06:33:30.775Z,58.96
2022-09-03T06:34:32.386Z,59.91
2022-09-03T06:35:35.831Z,60.46
2022-09-03T06:36:44.815Z,59.84
2022-09-03T06:37:46.368Z,59.73
2022-09-03T06:38:47.882Z,59.39
2022-09-03T06:39:50.623Z,59.47
2022-09-03T06:40:59.176Z,59.17
2022-09-03T06:42:00.776Z,59.04
2022-09-03T06:43:10.910Z,58.72
2022-09-03T06:44:13.124Z,58.90
2022-09-03T06:45:14.651Z,58.73
2022-09-03T06:46:16.925Z,58.85
2022-09-03T06:47:18.469Z,58.99
2022-09-03T06:48:20.089Z,59.49
2022-09-03T06:49:21.807Z,59.34
2022-09-03T06:50:23.386Z,60.25
2022-09-03T06:51:26.228Z,60.74
2022-09-03T06:52:28.310Z,60.50
2022-09-03T06:53:32.211Z,60.04
2022-09-03T06:54:33.762Z,60.23
2022-09-03T06:55:35.645Z,60.06
2022-09-03T06:56:40.509Z,59.54
2022-09-03T06:57:42.495Z,59.35
2022-09-03T06:58:47.412Z,59.50
2022-09-03T06:59:49.571Z,58.63
2022-09-03T07:00:52.989Z,58.58
2022-09-03T07:01:55.305Z,58.83
2022-09-03T07:02:59.088Z,59.08
2022-09-03T07:04:04.393Z,58.46
2022-09-03T07:05:06.012Z,58.33
2022-09-03T07:06:11.635Z,58.36
2022-09-03T07:07:14.049Z,58.48
2022-09-03T07:08:15.955Z,58.79
2022-09-03T07:09:18.975Z,58.90
2022-09-03T07:10:21.787Z,59.62
2022-09-03T07:11:26.185Z,59.59
2022-09-03T07:12:27.702Z,59.82
2022-09-03T07:13:29.399Z,59.93
2022-09-03T07:14:30.882Z,60.11
2022-09-03T07:15:33.063Z,60.28
2022-09-03T07:16:35.490Z,59.97
2022-09-03T07:17:37.121Z,60.54
2022-09-03T07:18:38.790Z,60.68
2022-09-03T07:19:40.327Z,61.09
2022-09-03T07:20:41.827Z,60.60
2022-09-03T07:21:48.314Z,60.81
2022-09-03T07:22:50.978Z,60.31
2022-09-03T07:23:53.210Z,60.60
2022-09-03T07:24:54.763Z,60.43
2022-09-03T07:25:56.509Z,60.44
2022-09-03T07:26:58.193Z,59.89
2022-09-03T07:28:00.089Z,59.73
2022-09-03T07:29:01.836Z,59.81
2022-09-03T07:30:03.930Z,60.31
2022-09-03T07:31:10.679Z,60.14
2022-09-03T07:32:12.302Z,60.22
2022-09-03T07:33:14.352Z,60.09
2022-09-03T07:34:16.520Z,60.49
2022-09-03T07:35:19.919Z,60.38
2022-09-03T07:36:23.795Z,60.82
2022-09-03T07:37:25.302Z,60.92
2022-09-03T07:38:26.880Z,61.03
2022-09-03T07:39:28.403Z,60.91
2022-09-03T07:40:29.982Z,60.59
2022-09-03T07:41:33.170Z,60.97
2022-09-03T07:42:36.103Z,60.78
2022-09-03T07:43:41.113Z,60.72
2022-09-03T07:44:42.631Z,61.06
2022-09-03T07:45:50.011Z,61.28
2022-09-03T07:46:52.086Z,60.31
2022-09-03T07:47:54.010Z,60.44
2022-09-03T07:48:56.400Z,60.38
2022-09-03T07:49:57.890Z,60.22
2022-09-03T07:51:02.863Z,60.08
2022-09-03T07:52:04.368Z,60.13
2022-09-03T07:53:05.960Z,59.86
2022-09-03T07:54:09.216Z,60.15
2022-09-03T07:55:10.922Z,60.05
2022-09-03T07:56:12.792Z,60.51
2022-09-03T07:57:14.291Z,60.31
2022-09-03T07:58:15.839Z,60.74
2022-09-03T07:59:17.460Z,60.58
2022-09-03T08:00:19.039Z,60.38
2022-09-03T08:01:21.082Z,60.22
2022-09-03T08:02:22.634Z,60.32
2022-09-03T08:03:24.287Z,60.42
2022-09-03T08:04:26.022Z,60.35
2022-09-03T08:05:27.568Z,60.53
2022-09-03T08:06:29.466Z,60.34
2022-09-03T08:07:30.950Z,60.56
2022-09-03T08:08:36.380Z,60.69
2022-09-03T08:09:38.468Z,60.41
2022-09-03T08:10:40.272Z,60.48
2022-09-03T08:11:43.336Z,60.76
2022-09-03T08:12:44.850Z,60.87
2022-09-03T08:13:48.511Z,60.87
2022-09-03T08:14:49.999Z,60.75
2022-09-03T08:15:54.999Z,60.74
2022-09-03T08:16:56.640Z,60.88
2022-09-03T08:17:59.640Z,61.24
2022-09-03T08:19:05.502Z,61.23
2022-09-03T08:20:08.166Z,62.04
2022-09-03T08:21:10.428Z,61.97
2022-09-03T08:22:11.963Z,61.94
2022-09-03T08:23:14.791Z,61.75
2022-09-03T08:24:16.817Z,61.96
2022-09-03T08:25:18.310Z,62.23
2022-09-03T08:26:19.931Z,61.57
2022-09-03T08:27:25.378Z,62.03
2022-09-03T08:28:27.206Z,62.09
2022-09-03T08:29:28.795Z,62.07
2022-09-03T08:30:30.350Z,62.97
2022-09-03T08:31:32.409Z,62.87
2022-09-03T08:32:34.789Z,62.62
2022-09-03T08:33:39.369Z,62.92
2022-09-03T08:34:41.171Z,62.89
2022-09-03T08:35:42.711Z,62.73
2022-09-03T08:36:44.525Z,62.95
2022-09-03T08:37:46.042Z,63.82
2022-09-03T08:38:47.827Z,63.77
2022-09-03T08:39:49.373Z,63.25
2022-09-03T08:40:50.899Z,63.25
2022-09-03T08:41:55.055Z,63.78
2022-09-03T08:43:09.078Z,63.72
2022-09-03T08:44:13.614Z,63.75
2022-09-03T08:45:16.787Z,64.04
2022-09-03T08:46:18.324Z,63.92
2022-09-03T08:47:30.249Z,64.30
2022-09-03T08:48:31.729Z,64.03
2022-09-03T08:49:46.293Z,63.99
2022-09-03T08:50:50.053Z,64.70
2022-09-03T08:51:51.647Z,64.73
2022-09-03T08:53:13.456Z,65.33
2022-09-03T08:54:14.960Z,65.27
2022-09-03T08:55:16.424Z,65.02
2022-09-03T08:56:28.800Z,64.65
2022-09-03T08:57:30.588Z,65.05
2022-09-03T08:58:33.163Z,65.41
2022-09-03T08:59:34.691Z,64.96
2022-09-03T09:01:01.487Z,65.73
2022-09-03T09:02:04.439Z,66.32
2022-09-03T09:03:12.072Z,65.99
2022-09-03T09:04:16.581Z,66.14
2022-09-03T09:05:20.333Z,65.52
2022-09-03T09:06:42.010Z,65.60
2022-09-03T09:08:10.008Z,65.34
2022-09-03T09:09:24.498Z,64.67
2022-09-03T09:10:46.247Z,65.40
2022-09-03T09:12:06.240Z,65.11
2022-09-03T09:13:08.366Z,65.42
2022-09-03T09:14:13.213Z,65.14
2022-09-03T09:15:46.862Z,65.31
2022-09-03T09:17:04.091Z,65.34
2022-09-03T09:18:09.744Z,65.45
2022-09-03T09:19:12.877Z,64.57
2022-09-03T09:20:44.774Z,65.06
2022-09-03T09:21:50.874Z,65.36
2022-09-03T09:22:56.603Z,64.69
2022-09-03T09:23:59.853Z,64.27
2022-09-03T09:25:02.115Z,64.82
2022-09-03T09:26:05.574Z,64.84
2022-09-03T09:27:07.072Z,63.96
2022-09-03T09:28:13.475Z,64.32
2022-09-03T09:29:14.987Z,64.25
2022-09-03T09:30:17.005Z,64.01
2022-09-03T09:31:19.088Z,64.41
2022-09-03T09:32:21.623Z,64.04
2022-09-03T09:33:23.435Z,64.16
2022-09-03T09:34:25.098Z,64.04
2022-09-03T09:35:26.594Z,62.89
2022-09-03T09:36:28.464Z,62.97
2022-09-03T09:37:29.972Z,62.89
2022-09-03T09:38:32.966Z,61.46
2022-09-03T09:39:34.652Z,61.69
2022-09-03T09:40:41.433Z,61.37
2022-09-03T09:42:09.955Z,60.65
2022-09-03T09:43:16.230Z,61.33
2022-09-03T09:44:19.310Z,62.08
2022-09-03T09:45:20.787Z,61.44
2022-09-03T09:46:22.906Z,61.50
2022-09-03T09:47:28.785Z,60.98
2022-09-03T09:48:34.337Z,61.27
2022-09-03T09:49:37.253Z,61.13
2022-09-03T09:50:38.838Z,60.57
2022-09-03T09:51:40.574Z,61.09
2022-09-03T09:52:43.958Z,61.21
2022-09-03T09:53:46.050Z,61.53
2022-09-03T09:54:47.521Z,61.46
2022-09-03T09:55:51.654Z,61.42
2022-09-03T09:57:22.684Z,61.34
2022-09-03T09:58:25.329Z,61.29
2022-09-03T09:59:27.098Z,60.47
2022-09-03T10:00:28.574Z,60.72
2022-09-03T10:01:32.787Z,60.58
2022-09-03T10:02:41.125Z,60.59
2022-09-03T10:04:09.421Z,60.54
2022-09-03T10:05:14.915Z,61.00
2022-09-03T10:06:35.243Z,61.03
2022-09-03T10:07:36.794Z,61.39
2022-09-03T10:08:38.277Z,60.92
2022-09-03T10:09:39.750Z,60.75
2022-09-03T10:10:43.436Z,60.42
2022-09-03T10:11:50.302Z,61.67
2022-09-03T10:12:59.786Z,60.17
2022-09-03T10:14:01.286Z,60.95
2022-09-03T10:15:04.956Z,59.74
2022-09-03T10:16:21.761Z,59.57
2022-09-03T10:17:36.687Z,59.24
2022-09-03T10:18:43.474Z,59.10
2022-09-03T10:20:24.925Z,59.95
2022-09-03T10:21:29.293Z,58.84
2022-09-03T10:22:32.352Z,58.61
2022-09-03T10:23:43.546Z,58.73
2022-09-03T10:24:58.406Z,58.74
2022-09-03T10:26:08.786Z,58.68
2022-09-03T10:27:12.330Z,58.68
2022-09-03T10:28:13.853Z,58.10
2022-09-03T10:29:21.801Z,58.54
2022-09-03T10:30:23.991Z,58.44
2022-09-03T10:31:44.226Z,57.65
2022-09-03T10:32:48.370Z,57.43
2022-09-03T10:34:02.159Z,57.33
2022-09-03T10:35:09.023Z,57.22
2022-09-03T10:36:20.015Z,56.86
2022-09-03T10:37:24.695Z,57.59
2022-09-03T10:38:33.268Z,57.65
2022-09-03T10:39:51.661Z,57.69
2022-09-03T10:40:54.002Z,57.51
2022-09-03T10:42:13.907Z,56.88
2022-09-03T10:43:31.616Z,57.10
2022-09-03T10:44:46.887Z,57.58
2022-09-03T10:45:59.565Z,58.08
2022-09-03T10:47:11.506Z,58.23
2022-09-03T10:48:32.420Z,57.56
2022-09-03T10:49:40.202Z,57.28
2022-09-03T10:50:44.658Z,56.96
2022-09-03T10:51:56.294Z,57.22
2022-09-03T10:53:00.345Z,57.03
2022-09-03T10:54:14.028Z,56.49
2022-09-03T10:55:55.822Z,56.35
2022-09-03T10:57:03.458Z,55.74
2022-09-03T10:58:23.759Z,55.52
2022-09-03T10:59:34.221Z,55.15
2022-09-03T11:00:35.812Z,54.64
2022-09-03T11:01:37.482Z,53.82
2022-09-03T11:02:58.844Z,54.06
2022-09-03T11:04:19.900Z,53.62
2022-09-03T11:05:22.307Z,53.58
2022-09-03T11:06:30.487Z,53.71
2022-09-03T11:07:33.957Z,53.47
2022-09-03T11:08:43.332Z,53.98
2022-09-03T11:10:04.047Z,53.75
2022-09-03T11:11:16.357Z,53.99
2022-09-03T11:12:25.696Z,54.36
2022-09-03T11:13:28.575Z,54.15
2022-09-03T11:14:33.218Z,53.97
2022-09-03T11:15:36.212Z,53.86
2022-09-03T11:16:39.050Z,54.00
2022-09-03T11:17:41.362Z,54.20
2022-09-03T11:18:44.178Z,54.49
2022-09-03T11:19:48.236Z,54.14
2022-09-03T11:20:50.710Z,54.05
2022-09-03T11:21:52.186Z,53.99
2022-09-03T11:22:57.779Z,53.85
2022-09-03T11:24:05.546Z,53.77
2022-09-03T11:25:07.415Z,53.56
2022-09-03T11:26:12.617Z,53.75
2022-09-03T11:27:35.281Z,53.88
2022-09-03T11:28:36.850Z,54.15
2022-09-03T11:29:42.115Z,54.18
2022-09-03T11:30:46.374Z,54.68
2022-09-03T11:31:57.883Z,54.70
2022-09-03T11:33:00.490Z,54.20
2022-09-03T11:34:13.960Z,53.98
2022-09-03T11:35:26.221Z,54.15
2022-09-03T11:36:35.090Z,53.99
2022-09-03T11:37:44.877Z,53.96
2022-09-03T11:38:46.456Z,54.11
2022-09-03T11:39:54.291Z,54.41
2022-09-03T11:40:58.096Z,53.54
2022-09-03T11:42:20.435Z,53.70
2022-09-03T11:43:25.014Z,53.63
2022-09-03T11:44:34.948Z,53.68
2022-09-03T11:45:37.522Z,53.93
2022-09-03T11:46:40.094Z,53.82
2022-09-03T11:47:42.959Z,53.90
2022-09-03T11:48:45.303Z,54.16
2022-09-03T11:49:51.239Z,54.07
2022-09-03T11:50:53.588Z,53.66
2022-09-03T11:52:02.030Z,53.98
2022-09-03T11:53:16.357Z,53.87
2022-09-03T11:54:20.866Z,53.38
2022-09-03T11:55:34.853Z,53.34
2022-09-03T11:56:40.331Z,53.29
2022-09-03T11:57:43.732Z,53.19
2022-09-03T11:58:45.248Z,53.09
2022-09-03T11:59:46.974Z,52.99
2022-09-03T12:00:50.569Z,53.42
2022-09-03T12:01:58.193Z,53.59
2022-09-03T12:03:01.966Z,53.18
2022-09-03T12:04:04.932Z,52.84
2022-09-03T12:05:16.009Z,52.74
2022-09-03T12:06:35.887Z,52.91
2022-09-03T12:07:37.484Z,53.30
2022-09-03T12:08:42.011Z,53.53
2022-09-03T12:09:44.831Z,53.37
2022-09-03T12:10:59.119Z,53.19
2022-09-03T12:12:03.466Z,53.21
2022-09-03T12:13:10.100Z,53.23
2022-09-03T12:14:17.763Z,53.47
2022-09-03T12:15:19.276Z,53.35
2022-09-03T12:16:50.103Z,52.99
2022-09-03T12:18:14.763Z,52.16
2022-09-03T12:19:22.260Z,52.47
2022-09-03T12:20:27.658Z,52.74
2022-09-03T12:21:29.191Z,52.68
2022-09-03T12:22:33.414Z,52.59
2022-09-03T12:23:44.950Z,52.50
2022-09-03T12:24:46.501Z,52.50
2022-09-03T12:25:48.349Z,52.68
2022-09-03T12:26:49.855Z,52.96
2022-09-03T12:27:51.375Z,52.53
2022-09-03T12:28:59.811Z,52.09
2022-09-03T12:30:02.423Z,52.09
2022-09-03T12:31:24.517Z,52.44
2022-09-03T12:32:32.385Z,52.22
2022-09-03T12:33:34.378Z,51.64
2022-09-03T12:34:37.095Z,51.67
2022-09-03T12:37:00.098Z,51.65
2022-09-03T12:38:06.679Z,51.66
2022-09-03T12:39:17.115Z,51.81
2022-09-03T12:40:21.769Z,51.82
2022-09-03T12:41:27.945Z,51.76
2022-09-03T12:42:30.311Z,52.28
2022-09-03T12:43:39.718Z,52.27
2022-09-03T12:44:42.641Z,52.50
2022-09-03T12:48:29.432Z,52.35
2022-09-03T12:49:51.183Z,52.35
2022-09-03T12:51:47.485Z,52.15
2022-09-03T12:52:29.639Z,51.99
2022-09-03T12:53:31.138Z,52.09
2022-09-03T12:54:37.187Z,52.08
2022-09-03T12:55:52.113Z,51.99
2022-09-03T12:56:54.758Z,52.12
2022-09-03T12:58:02.577Z,52.04
2022-09-03T12:59:06.039Z,52.12
2022-09-03T13:00:08.567Z,52.06
2022-09-03T13:01:11.687Z,52.01
2022-09-03T13:02:29.840Z,52.32
2022-09-03T13:03:50.715Z,51.75
2022-09-03T13:04:52.810Z,51.36
2022-09-03T13:05:54.978Z,51.55
2022-09-03T13:06:57.335Z,52.02
2022-09-03T13:07:59.443Z,52.16
2022-09-03T13:09:01.598Z,51.29
2022-09-03T13:10:05.175Z,50.43
2022-09-03T13:11:06.712Z,50.37
2022-09-03T13:12:19.488Z,50.86
2022-09-03T13:13:22.699Z,50.98
2022-09-03T13:14:24.310Z,50.64
2022-09-03T13:15:25.899Z,50.97
2022-09-03T13:16:46.051Z,50.62
2022-09-03T13:17:50.639Z,50.57
2022-09-03T13:18:58.180Z,50.69
2022-09-03T13:20:16.554Z,50.73
2022-09-03T13:21:27.269Z,50.92
2022-09-03T13:22:34.825Z,50.47
2022-09-03T13:23:40.131Z,50.73
2022-09-03T13:24:44.438Z,50.95
2022-09-03T13:25:49.048Z,51.46
2022-09-03T13:26:53.864Z,51.36
2022-09-03T13:28:14.276Z,51.20
2022-09-03T13:29:31.100Z,50.79
2022-09-03T13:30:47.605Z,51.13
2022-09-03T13:32:24.491Z,51.14
2022-09-03T13:33:29.483Z,51.17
2022-09-03T13:34:32.099Z,51.15
2022-09-03T13:35:45.187Z,50.70
2022-09-03T13:36:49.973Z,51.01
2022-09-03T13:38:01.819Z,51.34
2022-09-03T13:39:18.174Z,51.18
2022-09-03T13:40:22.744Z,51.21
2022-09-03T13:41:38.667Z,51.09
2022-09-03T13:42:40.973Z,51.17
2022-09-03T13:43:58.126Z,51.00
2022-09-03T13:45:25.547Z,51.32
2022-09-03T13:46:30.804Z,51.08
2022-09-03T13:47:32.299Z,51.23
2022-09-03T13:48:59.152Z,51.20
2022-09-03T13:50:22.582Z,50.60
2022-09-03T13:51:24.139Z,50.48
2022-09-03T13:52:45.897Z,50.42
2022-09-03T13:53:50.521Z,50.92
2022-09-03T13:54:56.147Z,51.03
2022-09-03T13:55:59.512Z,50.83
2022-09-03T13:57:01.447Z,50.63
2022-09-03T13:58:09.101Z,50.57
2022-09-03T13:59:16.824Z,50.71
2022-09-03T14:00:25.027Z,50.96
2022-09-03T14:01:42.164Z,50.79
2022-09-03T14:02:51.367Z,50.80
2022-09-03T14:03:53.814Z,50.58
2022-09-03T14:05:05.287Z,50.78
2022-09-03T14:06:14.513Z,50.51
2022-09-03T14:07:23.267Z,50.72
2022-09-03T14:08:58.620Z,50.91
2022-09-03T14:10:10.326Z,50.99
2022-09-03T14:11:27.924Z,50.90
2022-09-03T14:12:42.671Z,51.11